createdAt,value
2022-11-07T00:00:10.473Z,100.00
2022-11-07T00:02:36.929Z,100.00
2022-11-07T00:05:03.892Z,100.00
2022-11-07T00:07:30.348Z,100.00
2022-11-07T00:09:56.792Z,100.00
2022-11-07T00:12:23.256Z,100.00
2022-11-07T00:14:49.713Z,100.00
2022-11-07T00:17:18.187Z,100.00
2022-11-07T00:19:44.649Z,100.00
2022-11-07T00:22:11.106Z,100.00
2022-11-07T00:24:37.514Z,100.00
2022-11-07T00:27:04.081Z,100.00
2022-11-07T00:29:30.593Z,100.00
2022-11-07T00:31:57.025Z,100.00
2022-11-07T00:34:23.437Z,100.00
2022-11-07T00:36:49.897Z,100.00
2022-11-07T00:39:16.462Z,100.00
2022-11-07T00:41:43.150Z,100.00
2022-11-07T00:44:09.726Z,100.00
2022-11-07T00:46:36.296Z,100.00
2022-11-07T00:49:02.750Z,100.00
2022-11-07T00:51:29.618Z,100.00
2022-11-07T00:53:56.145Z,100.00
2022-11-07T00:56:24.557Z,100.00
2022-11-07T00:58:55.506Z,100.00
2022-11-07T01:01:25.225Z,100.00
2022-11-07T01:04:10.659Z,100.00
2022-11-07T01:06:39.856Z,100.00
2022-11-07T01:09:11.740Z,100.00
2022-11-07T01:11:39.234Z,100.00
2022-11-07T01:14:06.221Z,100.00
2022-11-07T01:16:35.326Z,100.00
2022-11-07T01:19:03.072Z,100.00
2022-11-07T01:21:29.719Z,100.00
2022-11-07T01:23:56.313Z,100.00
2022-11-07T01:26:22.846Z,100.00
2022-11-07T01:28:49.286Z,100.00
2022-11-07T01:31:16.886Z,100.00
2022-11-07T01:33:43.322Z,100.00
2022-11-07T01:36:12.292Z,100.00
2022-11-07T01:38:40.848Z,100.00
2022-11-07T01:41:21.879Z,100.00
2022-11-07T01:43:58.889Z,100.00
2022-11-07T01:46:29.268Z,100.00
2022-11-07T01:49:11.636Z,100.00
2022-11-07T01:51:45.925Z,100.00
2022-11-07T01:54:13.403Z,100.00
2022-11-07T01:56:42.160Z,100.00
2022-11-07T01:59:11.119Z,100.00
2022-11-07T02:01:37.667Z,100.00
2022-11-07T02:04:04.962Z,100.00
2022-11-07T02:06:40.018Z,100.00
2022-11-07T02:09:06.518Z,100.00
2022-11-07T02:11:33.597Z,100.00
2022-11-07T02:14:00.016Z,100.00
2022-11-07T02:16:27.814Z,100.00
2022-11-07T02:18:54.710Z,100.00
2022-11-07T02:21:36.921Z,100.00
2022-11-07T02:24:08.932Z,100.00
2022-11-07T02:26:36.843Z,100.00
2022-11-07T02:29:09.078Z,100.00
2022-11-07T02:31:35.602Z,100.00
2022-11-07T02:34:29.596Z,100.00
2022-11-07T02:36:56.689Z,100.00
2022-11-07T02:39:23.234Z,100.00
2022-11-07T02:41:50.395Z,100.00
2022-11-07T02:44:17.216Z,100.00
2022-11-07T02:46:43.661Z,100.00
2022-11-07T02:49:10.159Z,100.00
2022-11-07T02:51:36.586Z,100.00
2022-11-07T02:54:03.167Z,100.00
2022-11-07T02:56:29.828Z,100.00
2022-11-07T02:58:56.547Z,100.00
2022-11-07T03:01:23.201Z,100.00
2022-11-07T03:03:50.863Z,100.00
2022-11-07T03:06:19.983Z,100.00
2022-11-07T03:08:46.908Z,100.00
2022-11-07T03:11:13.942Z,100.00
2022-11-07T03:13:40.463Z,100.00
2022-11-07T03:16:08.921Z,100.00
2022-11-07T03:18:36.029Z,100.00
2022-11-07T03:21:02.766Z,100.00
2022-11-07T03:23:29.486Z,100.00
2022-11-07T03:25:56.140Z,100.00
2022-11-07T03:28:23.102Z,100.00
2022-11-07T03:30:49.569Z,100.00
2022-11-07T03:33:16.481Z,100.00
2022-11-07T03:35:43.583Z,100.00
2022-11-07T03:38:10.785Z,100.00
2022-11-07T03:40:37.546Z,100.00
2022-11-07T03:43:04.105Z,100.00
2022-11-07T03:45:31.237Z,100.00
2022-11-07T03:47:57.664Z,100.00
2022-11-07T03:50:24.067Z,100.00
2022-11-07T03:52:50.497Z,100.00
2022-11-07T03:55:18.201Z,100.00
2022-11-07T03:57:45.412Z,100.00
2022-11-07T04:00:12.568Z,100.00
2022-11-07T04:02:39.183Z,100.00
2022-11-07T04:05:06.378Z,100.00
2022-11-07T04:07:32.805Z,100.00
2022-11-07T04:09:59.229Z,100.00
2022-11-07T04:12:44.757Z,100.00
2022-11-07T04:15:30.076Z,100.00
2022-11-07T04:17:56.816Z,100.00
2022-11-07T04:20:23.351Z,100.00
2022-11-07T04:22:49.829Z,100.00
2022-11-07T04:25:16.374Z,100.00
2022-11-07T04:27:42.979Z,100.00
2022-11-07T04:30:21.891Z,100.00
2022-11-07T04:32:56.011Z,100.00
2022-11-07T04:35:24.580Z,100.00
2022-11-07T04:37:51.401Z,100.00
2022-11-07T04:40:18.501Z,100.00
2022-11-07T04:42:45.794Z,100.00
2022-11-07T04:45:13.125Z,100.00
2022-11-07T04:47:40.727Z,100.00
2022-11-07T04:50:10.278Z,100.00
2022-11-07T04:52:37.093Z,100.00
2022-11-07T04:55:04.028Z,100.00
2022-11-07T04:57:30.466Z,100.00
2022-11-07T04:59:57.040Z,100.00
2022-11-07T05:02:28.211Z,100.00
2022-11-07T05:04:54.790Z,100.00
2022-11-07T05:07:21.322Z,100.00
2022-11-07T05:09:48.072Z,100.00
2022-11-07T05:12:14.561Z,100.00
2022-11-07T05:14:41.212Z,100.00
2022-11-07T05:17:07.707Z,100.00
2022-11-07T05:19:34.201Z,100.00
2022-11-07T05:22:19.841Z,100.00
2022-11-07T05:24:46.253Z,100.00
2022-11-07T05:27:19.580Z,100.00
2022-11-07T05:29:46.298Z,100.00
2022-11-07T05:32:12.853Z,100.00
2022-11-07T05:34:39.546Z,100.00
2022-11-07T05:37:09.885Z,100.00
2022-11-07T05:39:36.907Z,100.00
2022-11-07T05:42:03.909Z,100.00
2022-11-07T05:44:30.585Z,100.00
2022-11-07T05:46:57.902Z,100.00
2022-11-07T05:49:24.786Z,100.00
2022-11-07T05:51:51.272Z,100.00
2022-11-07T05:54:17.709Z,100.00
2022-11-07T05:56:44.518Z,100.00
2022-11-07T05:59:11.516Z,100.00
2022-11-07T06:01:38.111Z,100.00
2022-11-07T06:04:05.298Z,100.00
2022-11-07T06:06:31.806Z,100.00
2022-11-07T06:08:58.600Z,100.00
2022-11-07T06:11:25.201Z,100.00
2022-11-07T06:13:53.207Z,100.00
2022-11-07T06:16:19.711Z,100.00
2022-11-07T06:18:46.661Z,100.00
2022-11-07T06:21:14.040Z,100.00
2022-11-07T06:23:40.659Z,100.00
2022-11-07T06:26:07.257Z,100.00
2022-11-07T06:28:33.882Z,100.00
2022-11-07T06:31:01.299Z,100.00
2022-11-07T06:33:29.861Z,100.00
2022-11-07T06:35:57.039Z,100.00
2022-11-07T06:38:24.895Z,100.00
2022-11-07T06:40:51.508Z,100.00
2022-11-07T06:43:19.890Z,100.00
2022-11-07T06:45:47.715Z,100.00
2022-11-07T06:48:15.109Z,100.00
2022-11-07T06:50:41.625Z,100.00
2022-11-07T06:53:10.777Z,100.00
2022-11-07T06:55:38.542Z,100.00
2022-11-07T06:58:05.543Z,100.00
2022-11-07T07:00:33.866Z,100.00
2022-11-07T07:03:00.639Z,100.00
2022-11-07T07:05:27.632Z,100.00
2022-11-07T07:07:55.787Z,100.00
2022-11-07T07:10:24.804Z,100.00
2022-11-07T07:12:51.783Z,100.00
2022-11-07T07:15:18.292Z,100.00
2022-11-07T07:17:44.746Z,100.00
2022-11-07T07:20:11.637Z,100.00
2022-11-07T07:22:38.174Z,100.00
2022-11-07T07:25:05.071Z,100.00
2022-11-07T07:27:31.538Z,100.00
2022-11-07T07:29:58.095Z,100.00
2022-11-07T07:32:25.232Z,100.00
2022-11-07T07:34:52.289Z,100.00
2022-11-07T07:37:18.877Z,100.00
2022-11-07T07:39:45.389Z,100.00
2022-11-07T07:42:12.041Z,100.00
2022-11-07T07:44:38.716Z,100.00
2022-11-07T07:47:10.934Z,100.00
2022-11-07T07:49:37.880Z,100.00
2022-11-07T07:52:04.752Z,100.00
2022-11-07T07:54:31.357Z,100.00
2022-11-07T07:56:57.866Z,100.00
2022-11-07T07:59:24.514Z,100.00
2022-11-07T08:01:56.518Z,100.00
2022-11-07T08:04:23.256Z,100.00
2022-11-07T08:06:49.726Z,100.00
2022-11-07T08:09:16.252Z,100.00
2022-11-07T08:11:42.676Z,100.00
2022-11-07T08:14:09.112Z,100.00
2022-11-07T08:16:35.606Z,100.00
2022-11-07T08:19:02.103Z,100.00
2022-11-07T08:21:29.355Z,100.00
2022-11-07T08:23:56.895Z,100.00
2022-11-07T08:26:23.394Z,100.00
2022-11-07T08:28:49.911Z,100.00
2022-11-07T08:31:16.450Z,100.00
2022-11-07T08:33:43.022Z,100.00
2022-11-07T08:36:10.106Z,100.00
2022-11-07T08:38:37.049Z,100.00
2022-11-07T08:41:04.381Z,100.00
2022-11-07T08:43:31.057Z,100.00
2022-11-07T08:45:57.842Z,100.00
2022-11-07T08:48:24.522Z,100.00
2022-11-07T08:50:53.050Z,100.00
2022-11-07T08:53:20.130Z,100.00
2022-11-07T08:55:47.094Z,100.00
2022-11-07T08:58:15.256Z,100.00
2022-11-07T09:00:42.080Z,100.00
2022-11-07T09:03:43.991Z,96.06
2022-11-07T09:05:58.276Z,90.35
2022-11-07T09:08:24.865Z,86.75
2022-11-07T09:10:51.538Z,87.39
2022-11-07T09:13:21.050Z,90.36
2022-11-07T09:15:51.399Z,92.46
2022-11-07T09:18:19.098Z,94.20
2022-11-07T09:20:45.795Z,93.19
2022-11-07T09:23:12.421Z,92.44
2022-11-07T09:25:38.862Z,91.45
2022-11-07T09:28:05.740Z,92.29
2022-11-07T09:30:32.455Z,92.98
2022-11-07T09:32:59.063Z,95.06
2022-11-07T09:35:25.685Z,96.22
2022-11-07T09:37:52.463Z,98.16
2022-11-07T09:40:44.155Z,95.45
2022-11-07T09:43:29.331Z,97.69
2022-11-07T09:46:05.139Z,97.40
2022-11-07T09:48:37.669Z,98.26
2022-11-07T09:51:04.571Z,98.69
2022-11-07T09:53:44.082Z,98.34
2022-11-07T09:56:12.714Z,97.26
2022-11-07T09:58:45.114Z,97.02
2022-11-07T10:01:14.236Z,94.48
2022-11-07T10:03:52.847Z,94.57
2022-11-07T10:06:45.272Z,92.62
2022-11-07T10:09:55.990Z,91.37
2022-11-07T10:12:44.753Z,90.79
2022-11-07T10:15:32.326Z,90.90
2022-11-07T10:18:16.327Z,90.02
2022-11-07T10:21:40.250Z,89.17
2022-11-07T10:24:17.862Z,88.79
2022-11-07T10:26:45.306Z,88.88
2022-11-07T10:29:18.365Z,88.55
2022-11-07T10:31:56.183Z,89.68
2022-11-07T10:34:36.302Z,89.61
2022-11-07T10:37:04.109Z,89.34
2022-11-07T10:39:31.443Z,89.14
2022-11-07T10:42:04.183Z,89.25
2022-11-07T10:44:31.027Z,88.33
2022-11-07T10:46:57.667Z,88.46
2022-11-07T10:49:29.701Z,88.63
2022-11-07T10:52:07.473Z,88.13
2022-11-07T10:54:34.112Z,88.64
2022-11-07T10:57:09.416Z,87.72
2022-11-07T11:00:08.196Z,87.12
2022-11-07T11:02:47.750Z,87.06
2022-11-07T11:05:26.575Z,86.11
2022-11-07T11:07:56.162Z,86.28
2022-11-07T11:10:30.288Z,85.82
2022-11-07T11:12:57.852Z,86.12
2022-11-07T11:15:30.116Z,85.38
2022-11-07T11:18:05.627Z,84.75
2022-11-07T11:20:36.361Z,83.76
2022-11-07T11:23:06.145Z,86.68
2022-11-07T11:25:43.585Z,86.87
2022-11-07T11:28:15.925Z,86.68
2022-11-07T11:30:43.422Z,86.74
2022-11-07T11:33:17.633Z,87.38
2022-11-07T11:35:52.005Z,86.18
2022-11-07T11:38:29.275Z,85.82
2022-11-07T11:41:06.098Z,86.42
2022-11-07T11:43:44.343Z,86.28
2022-11-07T11:46:32.277Z,86.18
2022-11-07T11:49:05.158Z,86.70
2022-11-07T11:51:41.038Z,85.10
2022-11-07T11:54:12.801Z,85.74
2022-11-07T11:56:51.243Z,83.45
2022-11-07T11:59:30.445Z,84.49
2022-11-07T12:02:46.036Z,84.07
2022-11-07T12:05:15.319Z,84.25
2022-11-07T12:07:57.144Z,83.88
2022-11-07T12:10:29.199Z,84.60
2022-11-07T12:13:07.759Z,85.59
2022-11-07T12:15:43.051Z,84.85
2022-11-07T12:18:09.418Z,86.05
2022-11-07T12:20:49.919Z,85.97
2022-11-07T12:23:56.251Z,86.28
2022-11-07T12:26:44.389Z,85.25
2022-11-07T12:29:24.378Z,84.59
2022-11-07T12:32:14.475Z,83.63
2022-11-07T12:34:48.023Z,82.90
2022-11-07T12:37:45.821Z,82.72
2022-11-07T12:40:37.827Z,82.19
2022-11-07T12:43:25.836Z,79.68
2022-11-07T12:46:07.779Z,79.48
2022-11-07T12:48:46.477Z,76.92
2022-11-07T12:51:57.092Z,75.98
2022-11-07T12:54:48.359Z,75.78
2022-11-07T12:57:33.631Z,76.25
2022-11-07T13:00:30.748Z,77.45
2022-11-07T13:03:09.209Z,77.07
2022-11-07T13:06:15.293Z,79.61
2022-11-07T13:08:51.829Z,79.14
2022-11-07T13:11:24.658Z,78.82
2022-11-07T13:14:12.951Z,78.69
2022-11-07T13:16:50.481Z,79.29
2022-11-07T13:19:34.924Z,79.82
2022-11-07T13:22:24.642Z,80.48
2022-11-07T13:25:07.637Z,81.46
2022-11-07T13:27:38.935Z,82.41
2022-11-07T13:30:17.368Z,81.53
2022-11-07T13:32:45.962Z,82.92
2022-11-07T13:35:31.197Z,83.25
2022-11-07T13:38:08.564Z,83.95
2022-11-07T13:40:39.779Z,83.17
2022-11-07T13:43:18.946Z,84.46
2022-11-07T13:45:45.679Z,84.89
2022-11-07T13:48:22.498Z,84.29
2022-11-07T13:50:59.362Z,84.55
2022-11-07T13:53:33.229Z,84.41
2022-11-07T13:56:34.812Z,85.28
2022-11-07T13:59:03.776Z,86.29
2022-11-07T14:01:41.376Z,85.99
2022-11-07T14:04:18.807Z,85.83
2022-11-07T14:06:45.848Z,86.14
2022-11-07T14:09:15.206Z,87.08
2022-11-07T14:11:41.786Z,86.58
2022-11-07T14:14:08.686Z,87.12
2022-11-07T14:16:35.327Z,87.13
2022-11-07T14:19:07.152Z,87.25
2022-11-07T14:21:35.522Z,87.58
2022-11-07T14:24:02.715Z,88.05
2022-11-07T14:26:32.759Z,88.58
2022-11-07T14:29:00.881Z,87.91
2022-11-07T14:31:32.595Z,87.86
2022-11-07T14:34:01.789Z,89.44
2022-11-07T14:36:31.446Z,90.18
2022-11-07T14:39:05.202Z,89.49
2022-11-07T14:41:31.789Z,90.43
2022-11-07T14:44:03.035Z,90.76
2022-11-07T14:46:29.909Z,90.54
2022-11-07T14:48:59.637Z,91.62
2022-11-07T14:51:28.032Z,90.51
2022-11-07T14:54:04.460Z,92.19
2022-11-07T14:56:35.920Z,91.99
2022-11-07T14:59:02.614Z,92.34
2022-11-07T15:01:32.068Z,93.25
2022-11-07T15:04:23.855Z,92.81
2022-11-07T15:06:50.668Z,93.10
2022-11-07T15:09:17.084Z,93.24
2022-11-07T15:11:57.095Z,93.37
2022-11-07T15:14:35.980Z,93.79
2022-11-07T15:17:05.739Z,93.43
2022-11-07T15:19:33.748Z,92.72
2022-11-07T15:22:03.207Z,92.22
2022-11-07T15:24:47.159Z,92.58
2022-11-07T15:27:13.690Z,94.08
2022-11-07T15:29:49.890Z,94.23
2022-11-07T15:32:19.686Z,94.04
2022-11-07T15:37:36.221Z,94.90
2022-11-07T15:40:13.013Z,94.58
2022-11-07T15:42:39.567Z,95.82
2022-11-07T15:45:06.346Z,95.54
2022-11-07T15:47:33.287Z,95.21
2022-11-07T15:49:59.833Z,95.09
2022-11-07T15:52:26.273Z,94.65
2022-11-07T15:54:52.689Z,95.31
2022-11-07T15:57:19.721Z,95.89
2022-11-07T15:59:46.231Z,96.38
2022-11-07T16:02:16.674Z,96.97
2022-11-07T16:04:43.822Z,96.35
2022-11-07T16:07:16.983Z,97.46
2022-11-07T16:09:43.492Z,97.17
2022-11-07T16:12:13.314Z,97.05
2022-11-07T16:14:44.692Z,97.79
2022-11-07T16:17:13.141Z,98.11
2022-11-07T16:19:41.348Z,98.37
2022-11-07T16:22:11.103Z,98.91
2022-11-07T16:24:37.877Z,99.53
2022-11-07T16:27:04.806Z,99.07
2022-11-07T16:29:31.999Z,99.47
2022-11-07T16:31:58.854Z,99.48
2022-11-07T16:34:25.459Z,100.00
2022-11-07T16:36:51.945Z,99.54
2022-11-07T16:39:20.997Z,100.00
2022-11-07T16:41:48.818Z,99.83
2022-11-07T16:44:15.434Z,99.94
2022-11-07T16:46:42.623Z,99.38
2022-11-07T16:49:35.152Z,100.00
2022-11-07T16:52:01.647Z,99.99
2022-11-07T16:54:28.808Z,100.00
2022-11-07T16:56:56.454Z,100.00
2022-11-07T16:59:24.607Z,99.89
2022-11-07T17:01:52.189Z,100.00
2022-11-07T17:04:19.009Z,100.00
2022-11-07T17:06:47.697Z,100.00
2022-11-07T17:09:19.399Z,100.00
2022-11-07T17:11:46.544Z,100.00
2022-11-07T17:14:13.251Z,100.00
2022-11-07T17:16:48.109Z,100.00
2022-11-07T17:19:15.568Z,100.00
2022-11-07T17:21:49.348Z,100.00
2022-11-07T17:24:19.239Z,100.00
2022-11-07T17:26:45.858Z,100.00
2022-11-07T17:29:13.996Z,100.00
2022-11-07T17:31:41.709Z,100.00
2022-11-07T17:34:08.274Z,100.00
2022-11-07T17:36:38.204Z,99.85
2022-11-07T17:39:10.969Z,99.65
2022-11-07T17:41:38.712Z,99.15
2022-11-07T17:44:05.408Z,99.28
2022-11-07T17:46:33.642Z,97.94
2022-11-07T17:49:02.494Z,97.34
2022-11-07T17:51:29.794Z,97.70
2022-11-07T17:53:57.144Z,97.41
2022-11-07T17:56:26.694Z,96.80
2022-11-07T17:58:58.175Z,96.86
2022-11-07T18:01:27.070Z,96.25
2022-11-07T18:03:54.823Z,96.36
2022-11-07T18:06:23.489Z,96.36
2022-11-07T18:08:55.001Z,96.12
2022-11-07T18:11:23.611Z,96.11
2022-11-07T18:13:50.777Z,95.94
2022-11-07T18:16:23.613Z,96.02
2022-11-07T18:18:51.022Z,96.13
2022-11-07T18:21:17.601Z,97.19
2022-11-07T18:23:44.598Z,96.94
2022-11-07T18:26:13.721Z,97.46
2022-11-07T18:28:40.842Z,96.70
2022-11-07T18:31:15.717Z,97.42
2022-11-07T18:33:42.672Z,96.95
2022-11-07T18:36:11.471Z,97.33
2022-11-07T18:38:39.019Z,97.54
2022-11-07T18:41:11.697Z,97.55
2022-11-07T18:43:38.941Z,98.25
2022-11-07T18:46:09.046Z,98.08
2022-11-07T18:48:37.303Z,97.95
2022-11-07T18:51:07.950Z,98.55
2022-11-07T18:53:34.464Z,98.78
2022-11-07T18:56:03.498Z,99.34
2022-11-07T18:58:31.711Z,99.73
2022-11-07T19:01:08.496Z,99.90
2022-11-07T19:03:35.441Z,99.78
2022-11-07T19:06:04.556Z,100.00
2022-11-07T19:08:33.996Z,100.00
2022-11-07T19:11:02.060Z,99.63
2022-11-07T19:13:29.449Z,99.92
2022-11-07T19:15:56.343Z,99.83
2022-11-07T19:18:22.956Z,100.00
2022-11-07T19:20:52.643Z,100.00
2022-11-07T19:23:19.257Z,100.00
2022-11-07T19:25:46.132Z,100.00
2022-11-07T19:28:12.568Z,100.00
2022-11-07T19:30:39.693Z,99.30
2022-11-07T19:33:08.140Z,99.87
2022-11-07T19:35:36.343Z,99.80
2022-11-07T19:38:07.711Z,99.57
2022-11-07T19:40:38.568Z,99.80
2022-11-07T19:43:08.586Z,100.00
2022-11-07T19:45:39.614Z,99.69
2022-11-07T19:48:06.256Z,99.76
2022-11-07T19:50:32.708Z,100.00
2022-11-07T19:52:59.172Z,100.00
2022-11-07T19:55:25.735Z,100.00
2022-11-07T19:57:52.210Z,100.00
2022-11-07T20:00:18.840Z,100.00
2022-11-07T20:02:48.898Z,100.00
2022-11-07T20:05:24.261Z,100.00
2022-11-07T20:07:55.337Z,100.00
2022-11-07T20:10:24.018Z,100.00
2022-11-07T20:12:50.523Z,100.00
2022-11-07T20:15:17.155Z,100.00
2022-11-07T20:17:44.025Z,100.00
2022-11-07T20:20:13.681Z,100.00
2022-11-07T20:22:46.010Z,100.00
2022-11-07T20:25:13.037Z,100.00
2022-11-07T20:27:39.432Z,100.00
2022-11-07T20:30:06.648Z,100.00
2022-11-07T20:32:33.412Z,100.00
2022-11-07T20:34:59.820Z,100.00
2022-11-07T20:37:26.348Z,100.00
2022-11-07T20:39:52.769Z,100.00
2022-11-07T20:42:19.262Z,100.00
2022-11-07T20:44:46.438Z,100.00
2022-11-07T20:47:13.211Z,100.00
2022-11-07T20:49:40.954Z,100.00
2022-11-07T20:52:07.746Z,100.00
2022-11-07T20:54:35.422Z,100.00
2022-11-07T20:57:02.020Z,100.00
2022-11-07T20:59:33.979Z,100.00
2022-11-07T21:02:03.642Z,100.00
2022-11-07T21:04:44.439Z,100.00
2022-11-07T21:07:19.884Z,100.00
2022-11-07T21:09:46.692Z,100.00
2022-11-07T21:12:13.174Z,100.00
2022-11-07T21:14:41.663Z,100.00
2022-11-07T21:17:09.320Z,100.00
2022-11-07T21:19:35.850Z,100.00
2022-11-07T21:22:04.135Z,100.00
2022-11-07T21:24:30.931Z,100.00
2022-11-07T21:26:57.886Z,100.00
2022-11-07T21:29:29.323Z,100.00
2022-11-07T21:31:56.487Z,100.00
2022-11-07T21:34:23.068Z,100.00
2022-11-07T21:36:49.726Z,100.00
2022-11-07T21:39:17.397Z,100.00
2022-11-07T21:41:43.858Z,100.00
2022-11-07T21:44:12.051Z,100.00
2022-11-07T21:46:38.521Z,100.00
2022-11-07T21:49:06.200Z,100.00
2022-11-07T21:51:34.422Z,100.00
2022-11-07T21:54:02.417Z,100.00
2022-11-07T21:56:34.501Z,100.00
2022-11-07T21:59:03.350Z,100.00
2022-11-07T22:01:34.855Z,100.00
2022-11-07T22:04:07.317Z,100.00
2022-11-07T22:06:36.976Z,100.00
2022-11-07T22:09:03.883Z,100.00
2022-11-07T22:11:30.363Z,100.00
2022-11-07T22:13:56.783Z,100.00
2022-11-07T22:16:23.517Z,100.00
2022-11-07T22:18:50.025Z,100.00
2022-11-07T22:21:19.588Z,100.00
2022-11-07T22:23:46.357Z,100.00
2022-11-07T22:26:15.377Z,100.00
2022-11-07T22:28:45.856Z,100.00
2022-11-07T22:31:17.623Z,100.00
2022-11-07T22:33:44.433Z,100.00
2022-11-07T22:36:12.042Z,100.00
2022-11-07T22:38:39.223Z,100.00
2022-11-07T22:41:07.424Z,100.00
2022-11-07T22:43:34.209Z,100.00
2022-11-07T22:46:02.955Z,100.00
2022-11-07T22:48:29.550Z,100.00
2022-11-07T22:51:13.090Z,100.00
2022-11-07T22:53:40.003Z,100.00
2022-11-07T22:56:19.743Z,100.00
2022-11-07T22:58:47.137Z,100.00
2022-11-07T23:01:16.616Z,100.00
2022-11-07T23:03:43.112Z,100.00
2022-11-07T23:06:09.783Z,100.00
2022-11-07T23:08:36.601Z,100.00
2022-11-07T23:14:00.657Z,100.00
2022-11-07T23:16:35.219Z,100.00
2022-11-07T23:19:04.310Z,100.00
2022-11-07T23:21:31.423Z,100.00
2022-11-07T23:23:58.923Z,100.00
2022-11-07T23:26:26.828Z,100.00
2022-11-07T23:28:53.277Z,100.00
2022-11-07T23:31:20.163Z,100.00
2022-11-07T23:33:46.622Z,100.00
2022-11-07T23:36:14.988Z,100.00
2022-11-07T23:38:42.497Z,100.00
2022-11-07T23:41:11.796Z,100.00
2022-11-07T23:43:38.450Z,100.00
2022-11-07T23:46:24.100Z,100.00
2022-11-07T23:49:14.191Z,100.00
2022-11-07T23:51:41.966Z,100.00
2022-11-07T23:54:28.086Z,100.00
2022-11-07T23:56:54.527Z,100.00
2022-11-07T23:59:39.968Z,100.00
